createdAt,value
2023-03-06T00:00:58.580Z,5.70
2023-03-06T00:06:05.132Z,4.93
2023-03-06T00:11:08.169Z,4.60
2023-03-06T00:16:11.671Z,4.60
2023-03-06T00:21:16.031Z,4.23
2023-03-06T00:26:19.079Z,5.80
2023-03-06T00:38:35.667Z,4.67
2023-03-06T00:43:40.755Z,4.93
2023-03-06T00:48:45.089Z,5.00
2023-03-06T00:53:48.478Z,5.17
2023-03-06T00:58:52.903Z,5.57
2023-03-06T01:03:55.897Z,5.33
2023-03-06T01:08:58.934Z,5.53
2023-03-06T01:14:05.598Z,5.03
2023-03-06T01:19:08.577Z,5.80
2023-03-06T01:24:11.511Z,5.37
2023-03-06T01:29:15.955Z,5.00
2023-03-06T01:34:19.151Z,5.57
2023-03-06T01:39:22.438Z,5.33
2023-03-06T01:51:30.044Z,6.13
2023-03-06T01:56:33.456Z,6.30
2023-03-06T02:01:36.737Z,5.87
2023-03-06T02:06:44.276Z,6.50
2023-03-06T02:11:47.372Z,6.27
2023-03-06T02:16:51.557Z,5.90
2023-03-06T02:21:56.704Z,6.20
2023-03-06T02:27:04.051Z,4.87
2023-03-06T02:32:08.038Z,5.70
2023-03-06T02:37:12.258Z,5.77
2023-03-06T02:42:22.552Z,5.40
2023-03-06T02:47:26.031Z,5.97
2023-03-06T02:52:29.051Z,5.90
2023-03-06T02:57:33.626Z,6.70
2023-03-06T03:02:37.004Z,6.13
2023-03-06T03:07:40.274Z,5.47
2023-03-06T03:12:46.345Z,6.60
2023-03-06T03:17:52.905Z,6.07
2023-03-06T03:22:57.290Z,6.60
2023-03-06T03:28:01.776Z,6.30
2023-03-06T03:33:05.899Z,5.53
2023-03-06T03:38:09.027Z,5.77
2023-03-06T03:43:13.630Z,6.27
2023-03-06T03:48:16.783Z,5.93
2023-03-06T03:53:20.244Z,5.73
2023-03-06T03:58:25.653Z,5.60
2023-03-06T04:03:28.938Z,6.00
2023-03-06T04:08:32.560Z,4.97
2023-03-06T04:13:37.510Z,5.37
2023-03-06T04:18:41.903Z,5.53
2023-03-06T04:23:45.085Z,5.60
2023-03-06T04:28:49.965Z,5.73
2023-03-06T04:33:53.426Z,5.57
2023-03-06T04:38:56.513Z,5.53
2023-03-06T04:44:01.318Z,5.23
2023-03-06T04:49:07.474Z,5.03
2023-03-06T04:54:10.504Z,5.80
2023-03-06T04:59:14.889Z,5.47
2023-03-06T05:04:17.881Z,4.33
2023-03-06T05:09:20.891Z,4.93
2023-03-06T05:14:25.403Z,5.57
2023-03-06T05:19:28.493Z,5.30
2023-03-06T05:24:31.458Z,4.93
2023-03-06T05:29:35.779Z,5.20
2023-03-06T05:34:40.237Z,4.87
2023-03-06T05:39:43.258Z,5.83
2023-03-06T05:44:47.766Z,5.60
2023-03-06T05:49:51.178Z,4.43
2023-03-06T05:54:55.503Z,5.70
2023-03-06T05:59:59.879Z,5.13
2023-03-06T06:05:13.185Z,4.73
2023-03-06T06:10:17.718Z,4.60
2023-03-06T06:15:22.205Z,4.63
2023-03-06T06:20:26.213Z,4.40
2023-03-06T06:25:29.383Z,4.70
2023-03-06T06:30:34.321Z,5.50
2023-03-06T06:35:38.055Z,5.67
2023-03-06T06:40:41.111Z,5.93
2023-03-06T06:45:45.684Z,5.87
2023-03-06T06:50:56.611Z,6.47
2023-03-06T06:56:00.844Z,6.07
2023-03-06T07:01:08.245Z,7.10
2023-03-06T07:06:11.568Z,6.13
2023-03-06T07:11:17.479Z,6.20
2023-03-06T07:16:21.953Z,6.10
2023-03-06T07:21:25.071Z,6.57
2023-03-06T07:26:29.844Z,6.40
2023-03-06T07:31:34.280Z,6.00
2023-03-06T07:36:37.306Z,5.77
2023-03-06T07:41:40.360Z,6.23
2023-03-06T07:46:50.864Z,5.30
2023-03-06T07:51:55.793Z,5.53
2023-03-06T07:56:58.778Z,5.07
2023-03-06T08:02:03.846Z,4.73
2023-03-06T08:07:07.165Z,4.90
2023-03-06T08:12:10.584Z,5.30
2023-03-06T08:17:17.918Z,5.20
2023-03-06T08:22:20.993Z,4.80
2023-03-06T08:27:24.238Z,4.23
2023-03-06T08:32:29.299Z,3.53
2023-03-06T08:37:32.284Z,3.27
2023-03-06T08:42:35.345Z,3.30
2023-03-06T08:47:39.869Z,2.40
2023-03-06T08:52:42.988Z,2.37
2023-03-06T08:57:46.804Z,2.37
2023-03-06T09:02:51.209Z,2.20
2023-03-06T09:07:55.407Z,2.17
2023-03-06T09:12:58.533Z,2.20
2023-03-06T09:18:05.925Z,2.93
2023-03-06T09:23:09.897Z,3.20
2023-03-06T09:28:13.444Z,2.83
2023-03-06T09:33:18.614Z,2.50
2023-03-06T09:38:23.231Z,2.67
2023-03-06T09:43:30.404Z,2.27
2023-03-06T09:48:43.097Z,2.50
2023-03-06T09:54:00.193Z,2.10
2023-03-06T09:59:13.357Z,2.13
2023-03-06T10:04:33.433Z,2.20
2023-03-06T10:09:43.244Z,2.40
2023-03-06T10:15:06.932Z,2.07
2023-03-06T10:20:18.814Z,2.10
2023-03-06T10:25:28.142Z,1.93
2023-03-06T10:30:42.264Z,2.20
2023-03-06T10:35:50.770Z,2.20
2023-03-06T10:41:08.202Z,2.30
2023-03-06T10:46:15.878Z,2.43
2023-03-06T10:51:23.234Z,4.60
2023-03-06T10:56:33.837Z,4.60
2023-03-06T11:01:37.220Z,4.57
2023-03-06T11:06:42.017Z,4.30
2023-03-06T11:11:45.173Z,3.07
2023-03-06T11:16:53.146Z,2.90
2023-03-06T11:22:05.399Z,3.10
2023-03-06T11:27:23.821Z,3.67
2023-03-06T11:32:31.044Z,4.20
2023-03-06T11:37:47.034Z,4.50
2023-03-06T11:43:00.404Z,3.70
2023-03-06T11:48:21.012Z,4.27
2023-03-06T11:53:33.509Z,4.80
2023-03-06T11:59:01.923Z,4.70
2023-03-06T12:04:40.382Z,4.30
2023-03-06T12:09:49.621Z,4.30
2023-03-06T12:15:07.980Z,4.37
2023-03-06T12:20:35.627Z,4.47
2023-03-06T12:25:45.144Z,3.73
2023-03-06T12:31:15.415Z,3.70
2023-03-06T12:36:34.345Z,4.07
2023-03-06T12:42:00.355Z,4.70
2023-03-06T12:47:05.201Z,4.20
2023-03-06T12:52:11.060Z,4.27
2023-03-06T12:57:16.307Z,4.43
2023-03-06T13:02:46.567Z,3.73
2023-03-06T13:08:01.934Z,4.13
2023-03-06T13:13:30.729Z,4.53
2023-03-06T13:19:13.161Z,4.33
2023-03-06T13:24:21.236Z,5.03
2023-03-06T13:30:04.255Z,5.13
2023-03-06T13:35:40.570Z,4.40
2023-03-06T13:40:43.618Z,5.20
2023-03-06T13:45:49.981Z,6.17
2023-03-06T13:50:55.581Z,6.00
2023-03-06T13:56:25.432Z,6.30
2023-03-06T14:01:43.619Z,6.50
2023-03-06T14:07:20.803Z,6.33
2023-03-06T14:12:26.997Z,6.17
2023-03-06T14:17:36.402Z,5.20
2023-03-06T14:22:39.534Z,6.13
2023-03-06T14:27:45.875Z,4.80
2023-03-06T14:32:52.852Z,5.13
2023-03-06T14:37:59.956Z,5.17
2023-03-06T14:43:21.939Z,5.83
2023-03-06T14:48:28.844Z,6.37
2023-03-06T14:53:33.865Z,6.10
2023-03-06T14:58:42.918Z,7.13
2023-03-06T15:03:50.939Z,7.70
2023-03-06T15:09:01.758Z,7.17
2023-03-06T15:14:07.729Z,8.83
2023-03-06T15:19:21.585Z,9.63
2023-03-06T15:24:34.224Z,9.63
2023-03-06T15:29:40.178Z,9.67
2023-03-06T15:34:44.797Z,9.90
2023-03-06T15:40:09.392Z,9.90
2023-03-06T15:45:18.936Z,10.40
2023-03-06T15:50:25.147Z,10.40
2023-03-06T15:55:28.369Z,9.97
2023-03-06T16:00:34.189Z,10.17
2023-03-06T16:05:38.687Z,11.67
2023-03-06T16:10:44.355Z,11.03
2023-03-06T16:15:51.795Z,11.30
2023-03-06T16:20:56.427Z,10.57
2023-03-06T16:25:59.436Z,9.77
2023-03-06T16:31:04.930Z,9.63
2023-03-06T16:36:14.672Z,8.87
2023-03-06T16:41:19.539Z,8.47
2023-03-06T16:46:25.115Z,9.40
2023-03-06T16:51:40.997Z,10.47
2023-03-06T16:56:44.643Z,9.37
2023-03-06T17:01:50.442Z,10.77
2023-03-06T17:06:55.236Z,11.43
2023-03-06T17:11:58.351Z,10.03
2023-03-06T17:17:06.990Z,11.27
2023-03-06T17:22:20.855Z,11.80
2023-03-06T17:27:24.642Z,10.70
2023-03-06T17:32:28.694Z,12.27
2023-03-06T17:37:33.831Z,12.20
2023-03-06T17:42:37.322Z,10.53
2023-03-06T17:47:43.530Z,10.80
2023-03-06T17:52:47.989Z,10.60
2023-03-06T17:57:53.025Z,11.37
2023-03-06T18:02:56.080Z,11.87
2023-03-06T18:08:04.835Z,11.73
2023-03-06T18:13:08.339Z,11.97
2023-03-06T18:18:11.338Z,11.57
2023-03-06T18:23:16.085Z,12.13
2023-03-06T18:28:19.578Z,12.20
2023-03-06T18:33:22.961Z,12.17
2023-03-06T18:38:27.488Z,12.07
2023-03-06T18:43:30.739Z,13.83
2023-03-06T18:48:34.170Z,14.00
2023-03-06T18:53:39.840Z,13.67
2023-03-06T18:58:42.919Z,14.23
2023-03-06T19:03:46.048Z,14.00
2023-03-06T19:08:50.805Z,14.63
2023-03-06T19:13:54.054Z,14.40
2023-03-06T19:18:57.584Z,14.23
2023-03-06T19:24:03.697Z,14.50
2023-03-06T19:29:06.794Z,14.93
2023-03-06T19:34:11.185Z,14.73
2023-03-06T19:39:15.866Z,15.43
2023-03-06T19:44:19.043Z,14.77
2023-03-06T19:49:22.271Z,13.77
2023-03-06T19:54:27.164Z,15.20
2023-03-06T19:59:30.972Z,14.43
2023-03-06T20:04:34.769Z,15.03
2023-03-06T20:09:39.581Z,14.57
2023-03-06T20:14:43.573Z,14.93
2023-03-06T20:19:49.406Z,15.27
2023-03-06T20:24:54.158Z,13.83
2023-03-06T20:29:57.251Z,14.10
2023-03-06T20:35:00.408Z,13.23
2023-03-06T20:40:08.282Z,12.20
2023-03-06T20:45:12.095Z,12.23
2023-03-06T20:50:16.166Z,12.73
2023-03-06T20:55:20.620Z,10.90
2023-03-06T21:00:23.730Z,8.97
2023-03-06T21:05:26.791Z,7.93
2023-03-06T21:10:34.050Z,6.43
2023-03-06T21:15:39.626Z,3.73
2023-03-06T21:20:43.049Z,2.70
2023-03-06T21:25:52.066Z,2.77
2023-03-06T21:30:55.409Z,2.60
2023-03-06T21:35:58.578Z,3.40
2023-03-06T21:41:10.345Z,4.00
2023-03-06T21:46:15.066Z,3.40
2023-03-06T21:51:20.163Z,3.43
2023-03-06T21:56:28.568Z,3.77
2023-03-06T22:01:31.986Z,3.43
2023-03-06T22:06:35.494Z,3.10
2023-03-06T22:11:40.141Z,3.10
2023-03-06T22:16:43.435Z,2.30
2023-03-06T22:21:46.466Z,3.27
2023-03-06T22:26:51.012Z,2.87
2023-03-06T22:31:54.156Z,2.73
2023-03-06T22:37:00.017Z,2.60
2023-03-06T22:42:05.672Z,2.20
2023-03-06T22:47:08.679Z,2.63
2023-03-06T22:52:15.373Z,2.80
2023-03-06T22:57:19.922Z,2.87
2023-03-06T23:02:22.910Z,2.50
2023-03-06T23:07:26.136Z,2.90
2023-03-06T23:12:38.080Z,2.50
2023-03-06T23:18:00.108Z,2.10
2023-03-06T23:23:22.625Z,1.93
2023-03-06T23:28:27.452Z,2.30
2023-03-06T23:33:33.691Z,2.13
2023-03-06T23:38:36.842Z,2.60
2023-03-06T23:43:41.640Z,3.10
2023-03-06T23:48:46.226Z,3.40
2023-03-06T23:53:55.630Z,3.30
2023-03-06T23:58:59.934Z,3.00
